sensor_id;sensor_type;location;lat;lon;timestamp;pressure;altitude;pressure_sealevel;temperature;humidity
53390;BME280;39288;42.970;1.524;2024-01-15T00:00:21;95211.84;;;8.38;88.83
53390;BME280;39288;42.970;1.524;2024-01-15T00:01:22;95211.25;;;8.41;88.98
53390;BME280;39288;42.970;1.524;2024-01-15T00:02:22;95209.09;;;8.43;88.65
53390;BME280;39288;42.970;1.524;2024-01-15T00:03:23;95218.22;;;8.50;89.20
53390;BME280;39288;42.970;1.524;2024-01-15T00:04:23;95220.06;;;8.77;87.37
53390;BME280;39288;42.970;1.524;2024-01-15T00:05:24;95220.94;;;8.73;87.95
53390;BME280;39288;42.970;1.524;2024-01-15T00:06:24;95217.72;;;8.62;88.28
53390;BME280;39288;42.970;1.524;2024-01-15T00:07:24;95217.13;;;8.65;88.17
53390;BME280;39288;42.970;1.524;2024-01-15T00:08:25;95219.59;;;8.62;88.41
53390;BME280;39288;42.970;1.524;2024-01-15T00:09:26;95220.16;;;8.72;87.28
53390;BME280;39288;42.970;1.524;2024-01-15T00:10:27;95220.16;;;8.72;87.65
53390;BME280;39288;42.970;1.524;2024-01-15T00:11:28;95211.63;;;8.75;87.41
53390;BME280;39288;42.970;1.524;2024-01-15T00:12:28;95212.41;;;8.62;88.06
53390;BME280;39288;42.970;1.524;2024-01-15T00:13:28;95208.78;;;8.44;89.17
53390;BME280;39288;42.970;1.524;2024-01-15T00:14:29;95204.78;;;8.47;89.48
53390;BME280;39288;42.970;1.524;2024-01-15T00:15:30;95202.28;;;8.50;89.08
53390;BME280;39288;42.970;1.524;2024-01-15T00:16:30;95208.78;;;8.58;88.83
53390;BME280;39288;42.970;1.524;2024-01-15T00:17:30;95209.19;;;8.51;89.94
53390;BME280;39288;42.970;1.524;2024-01-15T00:18:31;95216.53;;;8.68;88.65
53390;BME280;39288;42.970;1.524;2024-01-15T00:19:31;95217.00;;;8.84;87.17
53390;BME280;39288;42.970;1.524;2024-01-15T00:20:32;95224.19;;;8.83;87.75
53390;BME280;39288;42.970;1.524;2024-01-15T00:21:32;95215.50;;;8.92;87.42
53390;BME280;39288;42.970;1.524;2024-01-15T00:22:33;95209.81;;;9.20;85.90
53390;BME280;39288;42.970;1.524;2024-01-15T00:23:35;95212.47;;;9.20;85.75
53390;BME280;39288;42.970;1.524;2024-01-15T00:24:36;95210.47;;;9.04;86.89
53390;BME280;39288;42.970;1.524;2024-01-15T00:25:36;95209.22;;;8.87;87.55
53390;BME280;39288;42.970;1.524;2024-01-15T00:26:36;95209.03;;;8.70;88.30
53390;BME280;39288;42.970;1.524;2024-01-15T00:27:37;95206.72;;;8.55;89.27
53390;BME280;39288;42.970;1.524;2024-01-15T00:28:38;95207.00;;;8.54;89.61
53390;BME280;39288;42.970;1.524;2024-01-15T00:29:38;95205.66;;;8.56;89.54
53390;BME280;39288;42.970;1.524;2024-01-15T00:30:38;95204.94;;;8.64;89.93
53390;BME280;39288;42.970;1.524;2024-01-15T00:31:39;95200.28;;;8.70;89.14
53390;BME280;39288;42.970;1.524;2024-01-15T00:32:39;95200.63;;;8.55;89.12
53390;BME280;39288;42.970;1.524;2024-01-15T00:33:39;95200.25;;;8.34;89.54
53390;BME280;39288;42.970;1.524;2024-01-15T00:34:40;95201.25;;;8.38;91.59
53390;BME280;39288;42.970;1.524;2024-01-15T00:35:41;95197.97;;;8.41;91.65
53390;BME280;39288;42.970;1.524;2024-01-15T00:36:41;95198.75;;;8.28;90.89
53390;BME280;39288;42.970;1.524;2024-01-15T00:37:42;95193.16;;;8.15;90.73
53390;BME280;39288;42.970;1.524;2024-01-15T00:38:43;95201.19;;;7.97;91.00
53390;BME280;39288;42.970;1.524;2024-01-15T00:39:44;95197.63;;;7.74;90.26
53390;BME280;39288;42.970;1.524;2024-01-15T00:40:44;95195.72;;;7.61;91.20
53390;BME280;39288;42.970;1.524;2024-01-15T00:41:45;95191.66;;;7.50;90.98
53390;BME280;39288;42.970;1.524;2024-01-15T00:42:45;95190.69;;;7.46;91.45
53390;BME280;39288;42.970;1.524;2024-01-15T00:43:46;95189.69;;;7.41;92.33
53390;BME280;39288;42.970;1.524;2024-01-15T00:44:46;95185.91;;;7.48;92.91
53390;BME280;39288;42.970;1.524;2024-01-15T00:45:47;95188.66;;;7.56;92.18
53390;BME280;39288;42.970;1.524;2024-01-15T00:46:47;95185.06;;;7.66;92.17
53390;BME280;39288;42.970;1.524;2024-01-15T00:47:48;95180.91;;;7.60;92.07
53390;BME280;39288;42.970;1.524;2024-01-15T00:48:48;95182.41;;;7.66;92.39
53390;BME280;39288;42.970;1.524;2024-01-15T00:49:49;95169.94;;;7.80;92.31
53390;BME280;39288;42.970;1.524;2024-01-15T00:50:49;95176.63;;;7.77;92.05
53390;BME280;39288;42.970;1.524;2024-01-15T00:51:49;95175.59;;;7.60;91.05
53390;BME280;39288;42.970;1.524;2024-01-15T00:52:50;95175.59;;;7.46;91.21
53390;BME280;39288;42.970;1.524;2024-01-15T00:53:50;95171.81;;;7.33;92.11
53390;BME280;39288;42.970;1.524;2024-01-15T00:54:50;95175.53;;;7.32;91.93
53390;BME280;39288;42.970;1.524;2024-01-15T00:55:51;95175.75;;;7.36;92.23
53390;BME280;39288;42.970;1.524;2024-01-15T00:56:51;95161.31;;;7.28;91.93
53390;BME280;39288;42.970;1.524;2024-01-15T00:57:51;95165.91;;;7.23;91.84
53390;BME280;39288;42.970;1.524;2024-01-15T00:58:52;95165.09;;;7.22;92.51
53390;BME280;39288;42.970;1.524;2024-01-15T00:59:52;95164.53;;;7.25;92.82
53390;BME280;39288;42.970;1.524;2024-01-15T01:00:53;95167.09;;;7.30;92.51
53390;BME280;39288;42.970;1.524;2024-01-15T01:01:53;95172.38;;;7.30;91.99
53390;BME280;39288;42.970;1.524;2024-01-15T01:02:53;95170.03;;;7.29;92.74
53390;BME280;39288;42.970;1.524;2024-01-15T01:03:54;95162.38;;;7.27;91.96
53390;BME280;39288;42.970;1.524;2024-01-15T01:04:54;95162.97;;;7.24;92.53
53390;BME280;39288;42.970;1.524;2024-01-15T01:05:55;95161.09;;;7.25;91.98
53390;BME280;39288;42.970;1.524;2024-01-15T01:06:55;95158.84;;;7.18;92.27
53390;BME280;39288;42.970;1.524;2024-01-15T01:07:55;95156.75;;;7.15;92.22
53390;BME280;39288;42.970;1.524;2024-01-15T01:08:56;95145.09;;;7.16;92.59
53390;BME280;39288;42.970;1.524;2024-01-15T01:09:56;95149.38;;;7.12;91.83
53390;BME280;39288;42.970;1.524;2024-01-15T01:10:57;95151.63;;;7.05;91.82
53390;BME280;39288;42.970;1.524;2024-01-15T01:11:57;95162.78;;;7.02;92.06
53390;BME280;39288;42.970;1.524;2024-01-15T01:12:57;95151.84;;;6.90;92.85
53390;BME280;39288;42.970;1.524;2024-01-15T01:13:58;95159.31;;;6.88;92.49
53390;BME280;39288;42.970;1.524;2024-01-15T01:14:58;95156.72;;;6.83;92.44
53390;BME280;39288;42.970;1.524;2024-01-15T01:15:59;95161.06;;;6.92;92.66
53390;BME280;39288;42.970;1.524;2024-01-15T01:16:59;95163.16;;;6.95;91.98
53390;BME280;39288;42.970;1.524;2024-01-15T01:17:59;95162.06;;;6.96;92.49
53390;BME280;39288;42.970;1.524;2024-01-15T01:19:00;95164.63;;;7.01;92.14
53390;BME280;39288;42.970;1.524;2024-01-15T01:20:00;95168.72;;;6.94;92.09
53390;BME280;39288;42.970;1.524;2024-01-15T01:21:04;95171.88;;;6.96;92.56
53390;BME280;39288;42.970;1.524;2024-01-15T01:22:04;95171.28;;;6.99;92.05
53390;BME280;39288;42.970;1.524;2024-01-15T01:23:05;95165.00;;;6.95;92.71
53390;BME280;39288;42.970;1.524;2024-01-15T01:24:05;95166.38;;;6.92;92.16
53390;BME280;39288;42.970;1.524;2024-01-15T01:25:06;95166.38;;;6.92;92.83
53390;BME280;39288;42.970;1.524;2024-01-15T01:26:07;95170.31;;;6.95;92.11
53390;BME280;39288;42.970;1.524;2024-01-15T01:27:07;95176.66;;;6.94;92.75
53390;BME280;39288;42.970;1.524;2024-01-15T01:28:07;95175.59;;;6.95;91.99
53390;BME280;39288;42.970;1.524;2024-01-15T01:29:08;95172.44;;;6.93;92.49
53390;BME280;39288;42.970;1.524;2024-01-15T01:30:08;95170.44;;;6.85;92.32
53390;BME280;39288;42.970;1.524;2024-01-15T01:31:09;95171.03;;;6.82;92.41
53390;BME280;39288;42.970;1.524;2024-01-15T01:32:09;95175.97;;;6.88;92.46
53390;BME280;39288;42.970;1.524;2024-01-15T01:33:10;95174.31;;;6.92;92.83
53390;BME280;39288;42.970;1.524;2024-01-15T01:34:14;95170.88;;;6.92;92.98
53390;BME280;39288;42.970;1.524;2024-01-15T01:35:15;95175.09;;;6.93;92.56
53390;BME280;39288;42.970;1.524;2024-01-15T01:36:15;95172.94;;;6.95;92.33
53390;BME280;39288;42.970;1.524;2024-01-15T01:37:16;95168.72;;;6.94;92.97
53390;BME280;39288;42.970;1.524;2024-01-15T01:38:16;95174.53;;;6.96;92.65
53390;BME280;39288;42.970;1.524;2024-01-15T01:39:17;95168.72;;;6.94;92.72
53390;BME280;39288;42.970;1.524;2024-01-15T01:40:17;95169.38;;;6.86;92.52
53390;BME280;39288;42.970;1.524;2024-01-15T01:41:18;95169.88;;;6.88;92.46
53390;BME280;39288;42.970;1.524;2024-01-15T01:42:18;95167.72;;;6.90;92.71
53390;BME280;39288;42.970;1.524;2024-01-15T01:43:18;95161.84;;;6.93;93.27
53390;BME280;39288;42.970;1.524;2024-01-15T01:44:19;95163.44;;;6.94;92.43
53390;BME280;39288;42.970;1.524;2024-01-15T01:45:19;95160.28;;;6.92;92.58
53390;BME280;39288;42.970;1.524;2024-01-15T01:46:20;95160.94;;;6.84;92.11
53390;BME280;39288;42.970;1.524;2024-01-15T01:47:20;95159.44;;;6.78;92.95
53390;BME280;39288;42.970;1.524;2024-01-15T01:48:21;95152.59;;;6.77;92.74
53390;BME280;39288;42.970;1.524;2024-01-15T01:49:23;95155.41;;;6.80;92.74
53390;BME280;39288;42.970;1.524;2024-01-15T01:50:24;95155.22;;;6.95;92.08
53390;BME280;39288;42.970;1.524;2024-01-15T01:51:24;95148.75;;;7.01;92.16
53390;BME280;39288;42.970;1.524;2024-01-15T01:52:25;95143.97;;;7.03;92.81
53390;BME280;39288;42.970;1.524;2024-01-15T01:53:26;95156.69;;;7.01;91.94
53390;BME280;39288;42.970;1.524;2024-01-15T01:54:29;95150.59;;;7.01;92.54
53390;BME280;39288;42.970;1.524;2024-01-15T01:55:32;95151.78;;;6.95;92.80
53390;BME280;39288;42.970;1.524;2024-01-15T01:56:33;95163.22;;;6.90;92.96
53390;BME280;39288;42.970;1.524;2024-01-15T01:57:34;95164.50;;;6.93;92.28
53390;BME280;39288;42.970;1.524;2024-01-15T01:58:35;95165.78;;;6.95;92.47
53390;BME280;39288;42.970;1.524;2024-01-15T01:59:36;95163.44;;;6.94;92.08
53390;BME280;39288;42.970;1.524;2024-01-15T02:00:37;95166.59;;;6.96;92.39
53390;BME280;39288;42.970;1.524;2024-01-15T02:01:38;95153.91;;;6.93;92.62
53390;BME280;39288;42.970;1.524;2024-01-15T02:02:38;95156.56;;;6.93;92.65
53390;BME280;39288;42.970;1.524;2024-01-15T02:03:40;95160.50;;;6.95;92.16
53390;BME280;39288;42.970;1.524;2024-01-15T02:04:40;95162.94;;;6.92;92.46
53390;BME280;39288;42.970;1.524;2024-01-15T02:05:42;95160.84;;;6.89;92.67
53390;BME280;39288;42.970;1.524;2024-01-15T02:06:44;95165.00;;;6.95;92.55
53390;BME280;39288;42.970;1.524;2024-01-15T02:07:45;95168.22;;;6.92;92.38
53390;BME280;39288;42.970;1.524;2024-01-15T02:08:45;95171.44;;;6.89;92.72
53390;BME280;39288;42.970;1.524;2024-01-15T02:09:46;95171.03;;;6.82;91.89
53390;BME280;39288;42.970;1.524;2024-01-15T02:10:46;95174.72;;;6.81;92.67
53390;BME280;39288;42.970;1.524;2024-01-15T02:11:47;95171.53;;;6.84;92.47
53390;BME280;39288;42.970;1.524;2024-01-15T02:12:48;95164.28;;;6.89;92.36
53390;BME280;39288;42.970;1.524;2024-01-15T02:13:48;95160.50;;;6.95;92.30
53390;BME280;39288;42.970;1.524;2024-01-15T02:14:49;95163.03;;;6.87;92.10
53390;BME280;39288;42.970;1.524;2024-01-15T02:15:49;95158.78;;;6.86;92.09
53390;BME280;39288;42.970;1.524;2024-01-15T02:16:50;95158.41;;;6.92;92.14
53390;BME280;39288;42.970;1.524;2024-01-15T02:17:58;95146.97;;;6.97;91.56
53390;BME280;39288;42.970;1.524;2024-01-15T02:18:58;95145.97;;;6.93;91.80
53390;BME280;39288;42.970;1.524;2024-01-15T02:19:58;95146.84;;;6.88;91.79
53390;BME280;39288;42.970;1.524;2024-01-15T02:20:59;95137.34;;;6.87;91.96
53390;BME280;39288;42.970;1.524;2024-01-15T02:21:59;95144.41;;;6.92;92.36
53390;BME280;39288;42.970;1.524;2024-01-15T02:23:13;95147.03;;;6.92;92.33
53390;BME280;39288;42.970;1.524;2024-01-15T02:24:13;95137.53;;;6.91;92.06
53390;BME280;39288;42.970;1.524;2024-01-15T02:25:14;95154.56;;;6.85;91.73
53390;BME280;39288;42.970;1.524;2024-01-15T02:26:14;95149.28;;;6.85;92.24
53390;BME280;39288;42.970;1.524;2024-01-15T02:27:15;95157.88;;;6.77;92.53
53390;BME280;39288;42.970;1.524;2024-01-15T02:28:17;95150.44;;;6.79;91.91
53390;BME280;39288;42.970;1.524;2024-01-15T02:29:17;95154.16;;;6.78;92.58
53390;BME280;39288;42.970;1.524;2024-01-15T02:30:18;95151.00;;;6.76;92.62
53390;BME280;39288;42.970;1.524;2024-01-15T02:31:18;95150.06;;;6.66;92.00
53390;BME280;39288;42.970;1.524;2024-01-15T02:32:19;95148.00;;;6.63;92.29
53390;BME280;39288;42.970;1.524;2024-01-15T02:33:20;95146.41;;;6.62;92.45
53390;BME280;39288;42.970;1.524;2024-01-15T02:34:20;95148.00;;;6.63;92.43
53390;BME280;39288;42.970;1.524;2024-01-15T02:35:21;95144.50;;;6.68;92.32
53390;BME280;39288;42.970;1.524;2024-01-15T02:36:21;95140.69;;;6.74;92.20
53390;BME280;39288;42.970;1.524;2024-01-15T02:37:22;95144.69;;;6.72;92.07
53390;BME280;39288;42.970;1.524;2024-01-15T02:38:22;95134.84;;;6.58;92.65
53390;BME280;39288;42.970;1.524;2024-01-15T02:39:22;95136.34;;;6.64;92.29
53390;BME280;39288;42.970;1.524;2024-01-15T02:40:23;95135.97;;;6.71;92.90
53390;BME280;39288;42.970;1.524;2024-01-15T02:41:23;95133.59;;;6.70;93.08
53390;BME280;39288;42.970;1.524;2024-01-15T02:42:26;95133.41;;;6.66;92.81
53390;BME280;39288;42.970;1.524;2024-01-15T02:43:26;95124.13;;;6.69;92.69
53390;BME280;39288;42.970;1.524;2024-01-15T02:44:27;95122.53;;;6.68;92.54
53390;BME280;39288;42.970;1.524;2024-01-15T02:45:27;95116.19;;;6.69;92.87
53390;BME280;39288;42.970;1.524;2024-01-15T02:46:28;95123.34;;;6.68;92.52
53390;BME280;39288;42.970;1.524;2024-01-15T02:47:28;95128.41;;;6.64;92.75
53390;BME280;39288;42.970;1.524;2024-01-15T02:48:28;95121.25;;;6.65;93.15
53390;BME280;39288;42.970;1.524;2024-01-15T02:49:29;95127.91;;;6.62;92.95
53390;BME280;39288;42.970;1.524;2024-01-15T02:50:29;95122.09;;;6.60;93.40
53390;BME280;39288;42.970;1.524;2024-01-15T02:51:30;95123.75;;;6.56;92.66
53390;BME280;39288;42.970;1.524;2024-01-15T02:52:30;95120.66;;;6.49;92.24
53390;BME280;39288;42.970;1.524;2024-01-15T02:53:30;95120.94;;;6.29;92.64
53390;BME280;39288;42.970;1.524;2024-01-15T02:54:31;95123.25;;;6.17;92.74
53390;BME280;39288;42.970;1.524;2024-01-15T02:55:31;95127.38;;;6.23;92.09
53390;BME280;39288;42.970;1.524;2024-01-15T02:56:31;95133.69;;;6.27;93.03
53390;BME280;39288;42.970;1.524;2024-01-15T02:57:32;95128.53;;;6.17;91.99
53390;BME280;39288;42.970;1.524;2024-01-15T02:58:32;95119.84;;;6.11;92.27
53390;BME280;39288;42.970;1.524;2024-01-15T02:59:33;95124.81;;;6.18;93.19
53390;BME280;39288;42.970;1.524;2024-01-15T03:00:33;95122.09;;;6.23;92.47
53390;BME280;39288;42.970;1.524;2024-01-15T03:01:33;95121.13;;;6.38;92.15
53390;BME280;39288;42.970;1.524;2024-01-15T03:02:38;95125.13;;;6.35;92.76
53390;BME280;39288;42.970;1.524;2024-01-15T03:03:43;95118.25;;;6.34;92.68
53390;BME280;39288;42.970;1.524;2024-01-15T03:04:44;95118.81;;;6.31;92.50
53390;BME280;39288;42.970;1.524;2024-01-15T03:05:44;95107.66;;;6.34;93.15
53390;BME280;39288;42.970;1.524;2024-01-15T03:06:45;95110.97;;;6.26;92.96
53390;BME280;39288;42.970;1.524;2024-01-15T03:07:45;95105.94;;;6.24;92.99
53390;BME280;39288;42.970;1.524;2024-01-15T03:08:46;95112.53;;;6.27;92.99
53390;BME280;39288;42.970;1.524;2024-01-15T03:09:46;95114.91;;;6.28;92.55
53390;BME280;39288;42.970;1.524;2024-01-15T03:10:46;95114.09;;;6.28;92.94
53390;BME280;39288;42.970;1.524;2024-01-15T03:11:47;95116.63;;;6.38;92.90
53390;BME280;39288;42.970;1.524;2024-01-15T03:12:48;95116.53;;;6.43;93.28
53390;BME280;39288;42.970;1.524;2024-01-15T03:13:49;95104.31;;;6.47;93.14
53390;BME280;39288;42.970;1.524;2024-01-15T03:14:49;95103.59;;;6.42;93.59
53390;BME280;39288;42.970;1.524;2024-01-15T03:15:49;95104.59;;;6.46;94.10
53390;BME280;39288;42.970;1.524;2024-01-15T03:16:50;95100.66;;;6.43;94.03
53390;BME280;39288;42.970;1.524;2024-01-15T03:17:50;95094.66;;;6.38;93.43
53390;BME280;39288;42.970;1.524;2024-01-15T03:18:50;95086.41;;;6.39;93.63
53390;BME280;39288;42.970;1.524;2024-01-15T03:19:51;95099.66;;;6.39;93.81
53390;BME280;39288;42.970;1.524;2024-01-15T03:20:51;95094.50;;;6.29;93.77
53390;BME280;39288;42.970;1.524;2024-01-15T03:21:52;95094.50;;;6.29;93.64
53390;BME280;39288;42.970;1.524;2024-01-15T03:22:52;95092.81;;;6.38;93.50
53390;BME280;39288;42.970;1.524;2024-01-15T03:23:52;95086.72;;;6.38;93.43
53390;BME280;39288;42.970;1.524;2024-01-15T03:24:53;95090.72;;;6.35;93.82
53390;BME280;39288;42.970;1.524;2024-01-15T03:25:53;95091.84;;;6.29;93.51
53390;BME280;39288;42.970;1.524;2024-01-15T03:26:54;95094.50;;;6.29;94.11
53390;BME280;39288;42.970;1.524;2024-01-15T03:27:54;95086.56;;;6.29;93.83
53390;BME280;39288;42.970;1.524;2024-01-15T03:28:54;95086.66;;;6.24;94.30
53390;BME280;39288;42.970;1.524;2024-01-15T03:29:55;95084.94;;;6.33;93.74
53390;BME280;39288;42.970;1.524;2024-01-15T03:30:55;95074.63;;;6.13;93.57
53390;BME280;39288;42.970;1.524;2024-01-15T03:31:55;95087.97;;;6.03;93.82
53390;BME280;39288;42.970;1.524;2024-01-15T03:32:56;95082.78;;;5.98;93.59
53390;BME280;39288;42.970;1.524;2024-01-15T03:33:56;95077.13;;;6.04;94.37
53390;BME280;39288;42.970;1.524;2024-01-15T03:34:57;95071.84;;;6.04;94.46
53390;BME280;39288;42.970;1.524;2024-01-15T03:35:58;95069.13;;;6.09;94.22
53390;BME280;39288;42.970;1.524;2024-01-15T03:36:58;95068.84;;;6.11;93.48
53390;BME280;39288;42.970;1.524;2024-01-15T03:37:59;95078.78;;;6.19;94.08
53390;BME280;39288;42.970;1.524;2024-01-15T03:38:59;95071.78;;;6.28;93.80
53390;BME280;39288;42.970;1.524;2024-01-15T03:40:00;95062.75;;;6.29;93.54
53390;BME280;39288;42.970;1.524;2024-01-15T03:41:00;95066.19;;;6.29;93.66
53390;BME280;39288;42.970;1.524;2024-01-15T03:42:00;95068.56;;;6.31;93.17
53390;BME280;39288;42.970;1.524;2024-01-15T03:43:01;95070.06;;;6.37;92.63
53390;BME280;39288;42.970;1.524;2024-01-15T03:44:01;95068.00;;;6.34;93.35
53390;BME280;39288;42.970;1.524;2024-01-15T03:45:02;95069.06;;;6.33;92.85
53390;BME280;39288;42.970;1.524;2024-01-15T03:46:03;95066.50;;;6.28;93.76
53390;BME280;39288;42.970;1.524;2024-01-15T03:47:04;95068.28;;;6.33;92.98
53390;BME280;39288;42.970;1.524;2024-01-15T03:48:05;95068.06;;;6.29;92.47
53390;BME280;39288;42.970;1.524;2024-01-15T03:49:05;95071.94;;;6.18;91.70
53390;BME280;39288;42.970;1.524;2024-01-15T03:50:06;95073.13;;;6.07;92.97
53390;BME280;39288;42.970;1.524;2024-01-15T03:51:06;95064.13;;;6.08;94.39
53390;BME280;39288;42.970;1.524;2024-01-15T03:52:07;95070.28;;;6.22;93.70
53390;BME280;39288;42.970;1.524;2024-01-15T03:53:07;95062.75;;;6.29;92.94
53390;BME280;39288;42.970;1.524;2024-01-15T03:54:07;95065.41;;;6.29;93.77
53390;BME280;39288;42.970;1.524;2024-01-15T03:55:08;95061.78;;;6.25;93.64
53390;BME280;39288;42.970;1.524;2024-01-15T03:56:08;95064.56;;;6.15;94.47
53390;BME280;39288;42.970;1.524;2024-01-15T03:57:08;95066.66;;;6.18;94.82
53390;BME280;39288;42.970;1.524;2024-01-15T03:58:09;95069.56;;;6.16;94.71
53390;BME280;39288;42.970;1.524;2024-01-15T03:59:09;95065.06;;;6.17;94.74
53390;BME280;39288;42.970;1.524;2024-01-15T04:00:10;95066.06;;;6.21;93.73
53390;BME280;39288;42.970;1.524;2024-01-15T04:01:11;95053.34;;;6.23;93.75
53390;BME280;39288;42.970;1.524;2024-01-15T04:02:11;95047.25;;;6.22;94.06
53390;BME280;39288;42.970;1.524;2024-01-15T04:03:11;95045.03;;;6.11;93.49
53390;BME280;39288;42.970;1.524;2024-01-15T04:04:12;95055.19;;;6.04;93.82
53390;BME280;39288;42.970;1.524;2024-01-15T04:05:12;95056.78;;;6.05;93.56
53390;BME280;39288;42.970;1.524;2024-01-15T04:06:13;95053.91;;;6.01;94.00
53390;BME280;39288;42.970;1.524;2024-01-15T04:07:13;95056.78;;;6.05;94.33
53390;BME280;39288;42.970;1.524;2024-01-15T04:08:13;95058.34;;;6.06;94.71
53390;BME280;39288;42.970;1.524;2024-01-15T04:09:14;95064.13;;;6.08;94.85
53390;BME280;39288;42.970;1.524;2024-01-15T04:10:14;95071.47;;;6.11;93.68
53390;BME280;39288;42.970;1.524;2024-01-15T04:11:15;95061.50;;;6.08;94.04
53390;BME280;39288;42.970;1.524;2024-01-15T04:12:15;95062.28;;;6.08;93.80
53390;BME280;39288;42.970;1.524;2024-01-15T04:13:15;95057.34;;;6.02;93.37
53390;BME280;39288;42.970;1.524;2024-01-15T04:14:16;95058.91;;;6.03;93.41
53390;BME280;39288;42.970;1.524;2024-01-15T04:15:16;95062.63;;;6.02;94.26
53390;BME280;39288;42.970;1.524;2024-01-15T04:16:16;95057.84;;;6.04;94.10
53390;BME280;39288;42.970;1.524;2024-01-15T04:17:17;95060.13;;;6.10;94.45
53390;BME280;39288;42.970;1.524;2024-01-15T04:18:18;95060.91;;;6.11;94.45
53390;BME280;39288;42.970;1.524;2024-01-15T04:19:18;95056.22;;;6.08;94.11
53390;BME280;39288;42.970;1.524;2024-01-15T04:20:18;95053.47;;;6.13;95.46
53390;BME280;39288;42.970;1.524;2024-01-15T04:21:19;95056.13;;;6.13;95.81
53390;BME280;39288;42.970;1.524;2024-01-15T04:22:19;95052.91;;;6.16;96.34
53390;BME280;39288;42.970;1.524;2024-01-15T04:23:19;95053.44;;;6.18;96.30
53390;BME280;39288;42.970;1.524;2024-01-15T04:24:20;95052.03;;;6.20;96.15
53390;BME280;39288;42.970;1.524;2024-01-15T04:25:20;95050.78;;;6.18;96.05
53390;BME280;39288;42.970;1.524;2024-01-15T04:26:20;95048.63;;;6.20;95.35
53390;BME280;39288;42.970;1.524;2024-01-15T04:27:21;95044.91;;;6.21;94.69
53390;BME280;39288;42.970;1.524;2024-01-15T04:28:21;95045.91;;;6.25;94.21
53390;BME280;39288;42.970;1.524;2024-01-15T04:29:22;95038.53;;;6.22;93.90
53390;BME280;39288;42.970;1.524;2024-01-15T04:30:22;95024.81;;;6.20;93.79
53390;BME280;39288;42.970;1.524;2024-01-15T04:31:24;95032.97;;;6.23;94.42
53390;BME280;39288;42.970;1.524;2024-01-15T04:32:25;95020.13;;;6.17;94.38
53390;BME280;39288;42.970;1.524;2024-01-15T04:33:25;95021.19;;;6.16;94.35
53390;BME280;39288;42.970;1.524;2024-01-15T04:34:25;95027.03;;;6.13;94.15
53390;BME280;39288;42.970;1.524;2024-01-15T04:35:26;95025.75;;;6.10;95.26
53390;BME280;39288;42.970;1.524;2024-01-15T04:36:26;95020.78;;;6.09;95.58
53390;BME280;39288;42.970;1.524;2024-01-15T04:37:27;95018.41;;;6.07;96.70
53390;BME280;39288;42.970;1.524;2024-01-15T04:38:27;95014.25;;;6.01;96.06
53390;BME280;39288;42.970;1.524;2024-01-15T04:39:28;95012.81;;;5.90;94.69
53390;BME280;39288;42.970;1.524;2024-01-15T04:40:29;95011.06;;;5.80;94.88
53390;BME280;39288;42.970;1.524;2024-01-15T04:41:29;95013.28;;;5.73;95.08
53390;BME280;39288;42.970;1.524;2024-01-15T04:42:30;95014.19;;;5.64;95.18
53390;BME280;39288;42.970;1.524;2024-01-15T04:43:30;95013.03;;;5.51;96.00
53390;BME280;39288;42.970;1.524;2024-01-15T04:44:30;95014.66;;;5.47;96.34
53390;BME280;39288;42.970;1.524;2024-01-15T04:45:31;95014.59;;;5.52;96.56
53390;BME280;39288;42.970;1.524;2024-01-15T04:46:31;95018.75;;;5.58;97.69
53390;BME280;39288;42.970;1.524;2024-01-15T04:47:32;95013.69;;;5.62;97.85
53390;BME280;39288;42.970;1.524;2024-01-15T04:48:32;95013.28;;;5.73;99.40
53390;BME280;39288;42.970;1.524;2024-01-15T04:49:33;95009.00;;;5.77;100.00
53390;BME280;39288;42.970;1.524;2024-01-15T04:50:33;95014.63;;;5.71;99.59
53390;BME280;39288;42.970;1.524;2024-01-15T04:51:34;95015.91;;;5.54;98.94
53390;BME280;39288;42.970;1.524;2024-01-15T04:52:34;95017.13;;;5.62;99.84
53390;BME280;39288;42.970;1.524;2024-01-15T04:53:35;95006.84;;;5.79;100.00
53390;BME280;39288;42.970;1.524;2024-01-15T04:54:36;95006.22;;;5.87;100.00
53390;BME280;39288;42.970;1.524;2024-01-15T04:55:36;95001.41;;;5.95;100.00
53390;BME280;39288;42.970;1.524;2024-01-15T04:56:37;95007.69;;;5.99;100.00
53390;BME280;39288;42.970;1.524;2024-01-15T04:57:37;95005.91;;;5.94;100.00
53390;BME280;39288;42.970;1.524;2024-01-15T04:58:38;94999.94;;;5.83;100.00
53390;BME280;39288;42.970;1.524;2024-01-15T04:59:38;94998.06;;;5.84;100.00
53390;BME280;39288;42.970;1.524;2024-01-15T05:00:39;94999.31;;;5.91;100.00
53390;BME280;39288;42.970;1.524;2024-01-15T05:01:40;95001.13;;;5.96;98.97
53390;BME280;39288;42.970;1.524;2024-01-15T05:02:41;95005.44;;;5.87;98.24
53390;BME280;39288;42.970;1.524;2024-01-15T05:03:41;95010.78;;;5.82;97.96
53390;BME280;39288;42.970;1.524;2024-01-15T05:04:41;95008.00;;;5.73;97.91
53390;BME280;39288;42.970;1.524;2024-01-15T05:05:42;95011.16;;;5.75;97.83
53390;BME280;39288;42.970;1.524;2024-01-15T05:06:42;95009.06;;;5.72;98.36
53390;BME280;39288;42.970;1.524;2024-01-15T05:07:43;95006.50;;;5.67;98.60
53390;BME280;39288;42.970;1.524;2024-01-15T05:08:43;95001.25;;;5.62;97.94
53390;BME280;39288;42.970;1.524;2024-01-15T05:09:43;95002.34;;;5.61;98.31
53390;BME280;39288;42.970;1.524;2024-01-15T05:10:44;95002.84;;;5.63;98.28
53390;BME280;39288;42.970;1.524;2024-01-15T05:11:45;95002.84;;;5.63;98.34
53390;BME280;39288;42.970;1.524;2024-01-15T05:12:45;95007.88;;;5.60;98.46
53390;BME280;39288;42.970;1.524;2024-01-15T05:13:45;95008.13;;;5.63;98.81
53390;BME280;39288;42.970;1.524;2024-01-15T05:14:46;95000.47;;;5.62;98.35
53390;BME280;39288;42.970;1.524;2024-01-15T05:15:46;95008.91;;;5.64;98.38
53390;BME280;39288;42.970;1.524;2024-01-15T05:16:48;94995.78;;;5.59;98.18
53390;BME280;39288;42.970;1.524;2024-01-15T05:17:49;95002.59;;;5.60;98.34
53390;BME280;39288;42.970;1.524;2024-01-15T05:18:49;95002.84;;;5.63;98.65
53390;BME280;39288;42.970;1.524;2024-01-15T05:19:50;94997.00;;;5.66;99.24
53390;BME280;39288;42.970;1.524;2024-01-15T05:20:50;94997.84;;;5.62;98.45
53390;BME280;39288;42.970;1.524;2024-01-15T05:21:52;94996.69;;;5.49;99.35
53390;BME280;39288;42.970;1.524;2024-01-15T05:22:52;94996.09;;;5.52;100.00
53390;BME280;39288;42.970;1.524;2024-01-15T05:23:53;94995.69;;;5.45;100.00
53390;BME280;39288;42.970;1.524;2024-01-15T05:24:53;95001.88;;;5.35;100.00